sensor_id;sensor_type;location;lat;lon;timestamp;temperature;humidity
20319;DHT22;10317;47.254;11.314;2022-09-01T00:01:52;15.30;99.90
20319;DHT22;10317;47.254;11.314;2022-09-01T00:04:21;15.30;99.90
20319;DHT22;10317;47.254;11.314;2022-09-01T00:06:48;15.30;99.90
20319;DHT22;10317;47.254;11.314;2022-09-01T00:09:17;15.20;99.90
20319;DHT22;10317;47.254;11.314;2022-09-01T00:11:46;15.20;99.90
20319;DHT22;10317;47.254;11.314;2022-09-01T00:14:12;15.20;99.90
20319;DHT22;10317;47.254;11.314;2022-09-01T00:16:38;15.20;99.90
20319;DHT22;10317;47.254;11.314;2022-09-01T00:19:04;15.20;99.90
20319;DHT22;10317;47.254;11.314;2022-09-01T00:21:33;15.10;99.90
20319;DHT22;10317;47.254;11.314;2022-09-01T00:23:59;15.10;99.90
20319;DHT22;10317;47.254;11.314;2022-09-01T00:26:26;15.10;99.90
20319;DHT22;10317;47.254;11.314;2022-09-01T00:28:52;15.10;99.90
20319;DHT22;10317;47.254;11.314;2022-09-01T00:31:18;15.10;99.90
20319;DHT22;10317;47.254;11.314;2022-09-01T00:33:46;15.10;99.90
20319;DHT22;10317;47.254;11.314;2022-09-01T00:36:12;15.10;99.90
20319;DHT22;10317;47.254;11.314;2022-09-01T00:38:38;15.10;99.90
20319;DHT22;10317;47.254;11.314;2022-09-01T00:41:05;15.10;99.90
20319;DHT22;10317;47.254;11.314;2022-09-01T00:43:39;15.10;99.90
20319;DHT22;10317;47.254;11.314;2022-09-01T00:46:09;15.10;99.90
20319;DHT22;10317;47.254;11.314;2022-09-01T00:48:36;15.10;99.90
20319;DHT22;10317;47.254;11.314;2022-09-01T00:51:03;15.10;99.90
20319;DHT22;10317;47.254;11.314;2022-09-01T00:53:29;15.10;99.90
20319;DHT22;10317;47.254;11.314;2022-09-01T00:55:55;15.10;99.90
20319;DHT22;10317;47.254;11.314;2022-09-01T00:58:22;15.00;99.90
20319;DHT22;10317;47.254;11.314;2022-09-01T01:00:48;15.10;99.90
20319;DHT22;10317;47.254;11.314;2022-09-01T01:03:16;15.00;99.90
20319;DHT22;10317;47.254;11.314;2022-09-01T01:05:46;15.00;99.90
20319;DHT22;10317;47.254;11.314;2022-09-01T01:08:52;15.00;99.90
20319;DHT22;10317;47.254;11.314;2022-09-01T01:11:16;15.00;99.90
20319;DHT22;10317;47.254;11.314;2022-09-01T01:13:50;14.90;99.90
20319;DHT22;10317;47.254;11.314;2022-09-01T01:16:17;14.90;99.90
20319;DHT22;10317;47.254;11.314;2022-09-01T01:18:42;14.90;99.90
20319;DHT22;10317;47.254;11.314;2022-09-01T01:21:17;14.90;99.90
20319;DHT22;10317;47.254;11.314;2022-09-01T01:26:51;14.90;99.90
20319;DHT22;10317;47.254;11.314;2022-09-01T01:29:17;14.80;99.90
20319;DHT22;10317;47.254;11.314;2022-09-01T01:31:44;14.90;99.90
20319;DHT22;10317;47.254;11.314;2022-09-01T01:34:18;14.90;99.90
20319;DHT22;10317;47.254;11.314;2022-09-01T01:36:45;14.90;99.90
20319;DHT22;10317;47.254;11.314;2022-09-01T01:41:42;14.90;99.90
20319;DHT22;10317;47.254;11.314;2022-09-01T01:44:11;14.90;99.90
20319;DHT22;10317;47.254;11.314;2022-09-01T01:46:41;14.80;99.90
20319;DHT22;10317;47.254;11.314;2022-09-01T01:49:08;14.80;99.90
20319;DHT22;10317;47.254;11.314;2022-09-01T01:51:34;14.80;99.90
20319;DHT22;10317;47.254;11.314;2022-09-01T01:54:01;14.80;99.90
20319;DHT22;10317;47.254;11.314;2022-09-01T01:56:31;14.80;99.90
20319;DHT22;10317;47.254;11.314;2022-09-01T01:58:58;14.80;99.90
20319;DHT22;10317;47.254;11.314;2022-09-01T02:01:26;14.80;99.90
20319;DHT22;10317;47.254;11.314;2022-09-01T02:03:55;14.80;99.90
20319;DHT22;10317;47.254;11.314;2022-09-01T02:06:23;14.80;99.90
20319;DHT22;10317;47.254;11.314;2022-09-01T02:08:51;14.80;99.90
20319;DHT22;10317;47.254;11.314;2022-09-01T02:11:18;14.80;99.90
20319;DHT22;10317;47.254;11.314;2022-09-01T02:13:44;14.80;99.90
20319;DHT22;10317;47.254;11.314;2022-09-01T02:16:11;14.80;99.90
20319;DHT22;10317;47.254;11.314;2022-09-01T02:18:41;14.80;99.90
20319;DHT22;10317;47.254;11.314;2022-09-01T02:21:10;14.80;99.90
20319;DHT22;10317;47.254;11.314;2022-09-01T02:23:38;14.70;99.90
20319;DHT22;10317;47.254;11.314;2022-09-01T02:26:06;14.70;99.90
20319;DHT22;10317;47.254;11.314;2022-09-01T02:28:36;14.70;99.90
20319;DHT22;10317;47.254;11.314;2022-09-01T02:31:05;14.70;99.90
20319;DHT22;10317;47.254;11.314;2022-09-01T02:33:34;14.60;99.90
20319;DHT22;10317;47.254;11.314;2022-09-01T02:36:07;14.70;99.90
20319;DHT22;10317;47.254;11.314;2022-09-01T02:38:33;14.70;99.90
20319;DHT22;10317;47.254;11.314;2022-09-01T02:41:01;14.70;99.90
20319;DHT22;10317;47.254;11.314;2022-09-01T02:43:28;14.70;99.90
20319;DHT22;10317;47.254;11.314;2022-09-01T02:46:00;14.60;99.90
20319;DHT22;10317;47.254;11.314;2022-09-01T02:48:35;14.60;99.90
20319;DHT22;10317;47.254;11.314;2022-09-01T02:51:22;14.60;99.90
20319;DHT22;10317;47.254;11.314;2022-09-01T02:53:50;14.70;99.90
20319;DHT22;10317;47.254;11.314;2022-09-01T02:56:23;14.70;99.90
20319;DHT22;10317;47.254;11.314;2022-09-01T02:58:49;14.70;99.90
20319;DHT22;10317;47.254;11.314;2022-09-01T03:03:45;14.70;99.90
20319;DHT22;10317;47.254;11.314;2022-09-01T03:06:11;14.70;99.90
20319;DHT22;10317;47.254;11.314;2022-09-01T03:08:37;14.70;99.90
20319;DHT22;10317;47.254;11.314;2022-09-01T03:11:05;14.70;99.90
20319;DHT22;10317;47.254;11.314;2022-09-01T03:13:37;14.70;99.90
20319;DHT22;10317;47.254;11.314;2022-09-01T03:16:04;14.70;99.90
20319;DHT22;10317;47.254;11.314;2022-09-01T03:18:30;14.70;99.90
20319;DHT22;10317;47.254;11.314;2022-09-01T03:20:56;14.70;99.90
20319;DHT22;10317;47.254;11.314;2022-09-01T03:23:22;14.70;99.90
20319;DHT22;10317;47.254;11.314;2022-09-01T03:25:50;14.70;99.90
20319;DHT22;10317;47.254;11.314;2022-09-01T03:28:16;14.70;99.90
20319;DHT22;10317;47.254;11.314;2022-09-01T03:30:50;14.70;99.90
20319;DHT22;10317;47.254;11.314;2022-09-01T03:33:18;14.70;99.90
20319;DHT22;10317;47.254;11.314;2022-09-01T03:35:45;14.70;99.90
20319;DHT22;10317;47.254;11.314;2022-09-01T03:38:12;14.70;99.90
20319;DHT22;10317;47.254;11.314;2022-09-01T03:40:50;14.70;99.90
20319;DHT22;10317;47.254;11.314;2022-09-01T03:43:17;14.70;99.90
20319;DHT22;10317;47.254;11.314;2022-09-01T03:45:45;14.70;99.90
20319;DHT22;10317;47.254;11.314;2022-09-01T03:48:11;14.70;99.90
20319;DHT22;10317;47.254;11.314;2022-09-01T03:50:42;14.70;99.90
20319;DHT22;10317;47.254;11.314;2022-09-01T03:53:17;14.70;99.90
20319;DHT22;10317;47.254;11.314;2022-09-01T03:55:44;14.70;99.90
20319;DHT22;10317;47.254;11.314;2022-09-01T03:58:12;14.70;99.90
20319;DHT22;10317;47.254;11.314;2022-09-01T04:00:42;14.70;99.90
20319;DHT22;10317;47.254;11.314;2022-09-01T04:03:10;14.70;99.90
20319;DHT22;10317;47.254;11.314;2022-09-01T04:05:38;14.70;99.90
20319;DHT22;10317;47.254;11.314;2022-09-01T04:08:07;14.70;99.90
20319;DHT22;10317;47.254;11.314;2022-09-01T04:10:40;14.70;99.90
20319;DHT22;10317;47.254;11.314;2022-09-01T04:13:08;14.70;99.90
20319;DHT22;10317;47.254;11.314;2022-09-01T04:15:36;14.70;99.90
20319;DHT22;10317;47.254;11.314;2022-09-01T04:18:02;14.70;99.90
20319;DHT22;10317;47.254;11.314;2022-09-01T04:20:41;14.70;99.90
20319;DHT22;10317;47.254;11.314;2022-09-01T04:23:25;14.70;99.90
20319;DHT22;10317;47.254;11.314;2022-09-01T04:25:58;14.80;99.90
20319;DHT22;10317;47.254;11.314;2022-09-01T04:28:30;14.70;99.90
20319;DHT22;10317;47.254;11.314;2022-09-01T04:30:59;14.70;99.90
20319;DHT22;10317;47.254;11.314;2022-09-01T04:33:31;14.70;99.90
20319;DHT22;10317;47.254;11.314;2022-09-01T04:36:11;14.70;99.90
20319;DHT22;10317;47.254;11.314;2022-09-01T04:38:38;14.70;99.90
20319;DHT22;10317;47.254;11.314;2022-09-01T04:41:04;14.70;99.90
20319;DHT22;10317;47.254;11.314;2022-09-01T04:43:32;14.70;99.90
20319;DHT22;10317;47.254;11.314;2022-09-01T04:45:57;14.70;99.90
20319;DHT22;10317;47.254;11.314;2022-09-01T04:48:24;14.70;99.90
20319;DHT22;10317;47.254;11.314;2022-09-01T04:50:50;14.70;99.90
20319;DHT22;10317;47.254;11.314;2022-09-01T04:53:17;14.70;99.90
20319;DHT22;10317;47.254;11.314;2022-09-01T04:55:44;14.70;99.90
20319;DHT22;10317;47.254;11.314;2022-09-01T04:58:15;14.70;99.90
20319;DHT22;10317;47.254;11.314;2022-09-01T05:00:44;14.70;99.90
20319;DHT22;10317;47.254;11.314;2022-09-01T05:03:12;14.70;99.90
20319;DHT22;10317;47.254;11.314;2022-09-01T05:05:43;14.70;99.90
20319;DHT22;10317;47.254;11.314;2022-09-01T05:08:11;14.70;99.90
20319;DHT22;10317;47.254;11.314;2022-09-01T05:10:46;14.80;99.90
20319;DHT22;10317;47.254;11.314;2022-09-01T05:13:15;14.70;99.90
20319;DHT22;10317;47.254;11.314;2022-09-01T05:15:43;14.80;99.90
20319;DHT22;10317;47.254;11.314;2022-09-01T05:18:16;14.70;99.90
20319;DHT22;10317;47.254;11.314;2022-09-01T05:20:48;14.80;99.90
20319;DHT22;10317;47.254;11.314;2022-09-01T05:23:15;14.80;99.90
20319;DHT22;10317;47.254;11.314;2022-09-01T05:25:48;14.80;99.90
20319;DHT22;10317;47.254;11.314;2022-09-01T05:28:16;14.80;99.90
20319;DHT22;10317;47.254;11.314;2022-09-01T05:30:44;14.80;99.90
20319;DHT22;10317;47.254;11.314;2022-09-01T05:33:10;14.80;99.90
20319;DHT22;10317;47.254;11.314;2022-09-01T05:35:41;14.80;99.90
20319;DHT22;10317;47.254;11.314;2022-09-01T05:38:11;14.80;99.90
20319;DHT22;10317;47.254;11.314;2022-09-01T05:40:39;14.80;99.90
20319;DHT22;10317;47.254;11.314;2022-09-01T05:43:06;14.80;99.90
20319;DHT22;10317;47.254;11.314;2022-09-01T05:45:35;14.80;99.90
20319;DHT22;10317;47.254;11.314;2022-09-01T05:48:02;14.80;99.90
20319;DHT22;10317;47.254;11.314;2022-09-01T05:50:30;14.80;99.90
20319;DHT22;10317;47.254;11.314;2022-09-01T05:52:55;14.80;99.90
20319;DHT22;10317;47.254;11.314;2022-09-01T05:55:21;14.80;99.90
20319;DHT22;10317;47.254;11.314;2022-09-01T05:57:47;14.80;99.90
20319;DHT22;10317;47.254;11.314;2022-09-01T06:00:14;14.80;99.90
20319;DHT22;10317;47.254;11.314;2022-09-01T06:02:42;14.80;99.90
20319;DHT22;10317;47.254;11.314;2022-09-01T06:05:08;14.80;99.90
20319;DHT22;10317;47.254;11.314;2022-09-01T06:07:35;14.80;99.90
20319;DHT22;10317;47.254;11.314;2022-09-01T06:10:03;14.80;99.90
20319;DHT22;10317;47.254;11.314;2022-09-01T06:12:29;14.80;99.90
20319;DHT22;10317;47.254;11.314;2022-09-01T06:14:55;14.80;99.90
20319;DHT22;10317;47.254;11.314;2022-09-01T06:17:23;14.80;99.90
20319;DHT22;10317;47.254;11.314;2022-09-01T06:19:51;14.80;99.90
20319;DHT22;10317;47.254;11.314;2022-09-01T06:22:18;14.80;99.90
20319;DHT22;10317;47.254;11.314;2022-09-01T06:24:44;14.70;99.90
20319;DHT22;10317;47.254;11.314;2022-09-01T06:27:13;14.70;99.90
20319;DHT22;10317;47.254;11.314;2022-09-01T06:29:43;14.70;99.90
20319;DHT22;10317;47.254;11.314;2022-09-01T06:32:10;14.60;99.90
20319;DHT22;10317;47.254;11.314;2022-09-01T06:34:41;14.60;99.90
20319;DHT22;10317;47.254;11.314;2022-09-01T06:37:09;14.60;99.90
20319;DHT22;10317;47.254;11.314;2022-09-01T06:39:35;14.60;99.90
20319;DHT22;10317;47.254;11.314;2022-09-01T06:42:01;14.70;99.90
20319;DHT22;10317;47.254;11.314;2022-09-01T06:44:27;14.70;99.90
20319;DHT22;10317;47.254;11.314;2022-09-01T06:46:57;14.70;99.90
20319;DHT22;10317;47.254;11.314;2022-09-01T06:49:24;14.70;99.90
20319;DHT22;10317;47.254;11.314;2022-09-01T06:52:00;14.70;99.90
20319;DHT22;10317;47.254;11.314;2022-09-01T06:54:28;14.70;99.90
20319;DHT22;10317;47.254;11.314;2022-09-01T06:56:55;14.70;99.90
20319;DHT22;10317;47.254;11.314;2022-09-01T06:59:21;14.80;99.90
20319;DHT22;10317;47.254;11.314;2022-09-01T07:01:48;14.80;99.90
20319;DHT22;10317;47.254;11.314;2022-09-01T07:04:16;14.80;99.90
20319;DHT22;10317;47.254;11.314;2022-09-01T07:06:45;14.80;99.90
20319;DHT22;10317;47.254;11.314;2022-09-01T07:09:14;14.80;99.90
20319;DHT22;10317;47.254;11.314;2022-09-01T07:11:40;14.90;99.90
20319;DHT22;10317;47.254;11.314;2022-09-01T07:14:05;14.90;99.90
20319;DHT22;10317;47.254;11.314;2022-09-01T07:16:35;14.90;99.90
20319;DHT22;10317;47.254;11.314;2022-09-01T07:19:04;14.90;99.90
20319;DHT22;10317;47.254;11.314;2022-09-01T07:21:30;15.00;99.90
20319;DHT22;10317;47.254;11.314;2022-09-01T07:23:57;15.00;99.90
20319;DHT22;10317;47.254;11.314;2022-09-01T07:26:26;15.10;99.90
20319;DHT22;10317;47.254;11.314;2022-09-01T07:28:51;15.10;99.90
20319;DHT22;10317;47.254;11.314;2022-09-01T07:31:27;15.20;99.90
20319;DHT22;10317;47.254;11.314;2022-09-01T07:33:55;15.30;99.90
20319;DHT22;10317;47.254;11.314;2022-09-01T07:36:23;15.40;99.90
20319;DHT22;10317;47.254;11.314;2022-09-01T07:38:49;15.40;99.90
20319;DHT22;10317;47.254;11.314;2022-09-01T07:41:19;15.50;99.90
20319;DHT22;10317;47.254;11.314;2022-09-01T07:43:46;15.60;99.90
20319;DHT22;10317;47.254;11.314;2022-09-01T07:46:18;15.70;99.90
20319;DHT22;10317;47.254;11.314;2022-09-01T07:48:44;15.70;99.90
20319;DHT22;10317;47.254;11.314;2022-09-01T07:51:14;15.80;99.90
20319;DHT22;10317;47.254;11.314;2022-09-01T07:53:45;15.90;99.90
20319;DHT22;10317;47.254;11.314;2022-09-01T07:56:13;16.00;99.90
20319;DHT22;10317;47.254;11.314;2022-09-01T07:58:40;16.00;99.90
20319;DHT22;10317;47.254;11.314;2022-09-01T08:01:11;16.10;99.90
20319;DHT22;10317;47.254;11.314;2022-09-01T08:03:38;16.20;99.90
20319;DHT22;10317;47.254;11.314;2022-09-01T08:06:07;16.30;99.90
20319;DHT22;10317;47.254;11.314;2022-09-01T08:08:34;16.40;99.90
20319;DHT22;10317;47.254;11.314;2022-09-01T08:11:00;16.50;99.90
20319;DHT22;10317;47.254;11.314;2022-09-01T08:13:26;16.70;99.90
20319;DHT22;10317;47.254;11.314;2022-09-01T08:15:52;16.80;99.90
20319;DHT22;10317;47.254;11.314;2022-09-01T08:18:18;17.00;99.90
20319;DHT22;10317;47.254;11.314;2022-09-01T08:20:44;17.10;99.90
20319;DHT22;10317;47.254;11.314;2022-09-01T08:23:17;17.20;99.90
20319;DHT22;10317;47.254;11.314;2022-09-01T08:25:45;17.50;99.90
20319;DHT22;10317;47.254;11.314;2022-09-01T08:28:12;17.70;99.90
20319;DHT22;10317;47.254;11.314;2022-09-01T08:30:41;18.30;99.90
20319;DHT22;10317;47.254;11.314;2022-09-01T08:33:07;19.20;99.90
20319;DHT22;10317;47.254;11.314;2022-09-01T08:35:41;20.10;99.90
20319;DHT22;10317;47.254;11.314;2022-09-01T08:38:08;20.50;99.90
20319;DHT22;10317;47.254;11.314;2022-09-01T08:40:34;21.10;98.30
20319;DHT22;10317;47.254;11.314;2022-09-01T08:43:21;21.60;97.20
20319;DHT22;10317;47.254;11.314;2022-09-01T08:45:55;21.90;96.00
20319;DHT22;10317;47.254;11.314;2022-09-01T08:48:33;21.70;96.20
20319;DHT22;10317;47.254;11.314;2022-09-01T08:54:13;21.10;96.10
20319;DHT22;10317;47.254;11.314;2022-09-01T08:56:41;21.00;97.20
20319;DHT22;10317;47.254;11.314;2022-09-01T08:59:08;21.10;95.70
20319;DHT22;10317;47.254;11.314;2022-09-01T09:01:41;20.80;97.10
20319;DHT22;10317;47.254;11.314;2022-09-01T09:10:19;20.90;97.80
20319;DHT22;10317;47.254;11.314;2022-09-01T09:18:21;21.80;96.70
20319;DHT22;10317;47.254;11.314;2022-09-01T09:20:51;21.90;96.40
20319;DHT22;10317;47.254;11.314;2022-09-01T09:23:26;21.90;94.80
20319;DHT22;10317;47.254;11.314;2022-09-01T09:25:53;21.90;93.30
20319;DHT22;10317;47.254;11.314;2022-09-01T09:28:19;21.90;95.60
20319;DHT22;10317;47.254;11.314;2022-09-01T09:30:45;21.80;94.60
20319;DHT22;10317;47.254;11.314;2022-09-01T09:33:32;21.70;92.40
20319;DHT22;10317;47.254;11.314;2022-09-01T09:36:19;21.80;92.10
20319;DHT22;10317;47.254;11.314;2022-09-01T09:38:45;22.30;92.20
20319;DHT22;10317;47.254;11.314;2022-09-01T09:41:20;22.20;92.50
20319;DHT22;10317;47.254;11.314;2022-09-01T09:46:37;22.80;92.40
20319;DHT22;10317;47.254;11.314;2022-09-01T09:49:19;23.10;91.90
20319;DHT22;10317;47.254;11.314;2022-09-01T09:51:57;23.00;90.10
20319;DHT22;10317;47.254;11.314;2022-09-01T09:58:00;23.00;86.80
20319;DHT22;10317;47.254;11.314;2022-09-01T10:00:34;23.00;88.60
20319;DHT22;10317;47.254;11.314;2022-09-01T10:03:06;23.30;90.10
20319;DHT22;10317;47.254;11.314;2022-09-01T10:05:44;23.00;87.00
20319;DHT22;10317;47.254;11.314;2022-09-01T10:08:40;22.30;90.10
20319;DHT22;10317;47.254;11.314;2022-09-01T10:11:32;22.10;91.40
20319;DHT22;10317;47.254;11.314;2022-09-01T10:14:00;21.90;90.70
20319;DHT22;10317;47.254;11.314;2022-09-01T10:16:28;21.70;91.00
20319;DHT22;10317;47.254;11.314;2022-09-01T10:18:58;21.50;92.50
20319;DHT22;10317;47.254;11.314;2022-09-01T10:21:37;21.40;92.90
20319;DHT22;10317;47.254;11.314;2022-09-01T10:24:28;21.30;92.20
20319;DHT22;10317;47.254;11.314;2022-09-01T10:26:58;21.10;91.90
20319;DHT22;10317;47.254;11.314;2022-09-01T10:29:39;21.40;92.80
20319;DHT22;10317;47.254;11.314;2022-09-01T10:32:14;21.70;94.10
20319;DHT22;10317;47.254;11.314;2022-09-01T10:34:41;21.70;92.60
20319;DHT22;10317;47.254;11.314;2022-09-01T10:37:07;21.80;94.30
20319;DHT22;10317;47.254;11.314;2022-09-01T10:39:33;22.00;92.20
20319;DHT22;10317;47.254;11.314;2022-09-01T10:42:00;22.10;90.70
20319;DHT22;10317;47.254;11.314;2022-09-01T10:44:38;21.90;90.00
20319;DHT22;10317;47.254;11.314;2022-09-01T10:47:28;21.70;90.30
20319;DHT22;10317;47.254;11.314;2022-09-01T10:50:00;21.80;91.80
20319;DHT22;10317;47.254;11.314;2022-09-01T10:55:18;21.90;90.90
20319;DHT22;10317;47.254;11.314;2022-09-01T11:13:59;22.20;87.00
20319;DHT22;10317;47.254;11.314;2022-09-01T11:18:52;22.30;87.70
20319;DHT22;10317;47.254;11.314;2022-09-01T11:21:27;22.20;85.70
20319;DHT22;10317;47.254;11.314;2022-09-01T11:26:55;21.90;84.00
20319;DHT22;10317;47.254;11.314;2022-09-01T11:29:53;21.70;84.30
20319;DHT22;10317;47.254;11.314;2022-09-01T11:32:23;21.50;86.10
20319;DHT22;10317;47.254;11.314;2022-09-01T11:34:51;21.50;89.60
20319;DHT22;10317;47.254;11.314;2022-09-01T11:37:21;21.40;88.40
20319;DHT22;10317;47.254;11.314;2022-09-01T11:39:57;21.40;87.10
20319;DHT22;10317;47.254;11.314;2022-09-01T11:42:32;21.30;90.00
20319;DHT22;10317;47.254;11.314;2022-09-01T11:45:19;21.10;89.20
20319;DHT22;10317;47.254;11.314;2022-09-01T11:47:53;21.10;90.10
20319;DHT22;10317;47.254;11.314;2022-09-01T11:50:26;21.10;93.00
20319;DHT22;10317;47.254;11.314;2022-09-01T11:55:43;20.90;90.20
20319;DHT22;10317;47.254;11.314;2022-09-01T12:00:53;20.90;91.40
20319;DHT22;10317;47.254;11.314;2022-09-01T12:03:24;20.60;89.60
20319;DHT22;10317;47.254;11.314;2022-09-01T12:05:55;20.70;91.70
20319;DHT22;10317;47.254;11.314;2022-09-01T12:08:25;20.70;91.50
20319;DHT22;10317;47.254;11.314;2022-09-01T12:13:28;20.80;92.30
20319;DHT22;10317;47.254;11.314;2022-09-01T12:16:00;20.80;91.00
20319;DHT22;10317;47.254;11.314;2022-09-01T12:18:31;20.80;91.70
20319;DHT22;10317;47.254;11.314;2022-09-01T12:21:00;20.90;90.60
20319;DHT22;10317;47.254;11.314;2022-09-01T12:23:36;20.90;92.50
20319;DHT22;10317;47.254;11.314;2022-09-01T12:26:08;20.80;89.00
20319;DHT22;10317;47.254;11.314;2022-09-01T12:28:35;20.80;89.80
20319;DHT22;10317;47.254;11.314;2022-09-01T12:31:06;20.90;90.00
20319;DHT22;10317;47.254;11.314;2022-09-01T12:33:32;20.90;91.20
20319;DHT22;10317;47.254;11.314;2022-09-01T12:36:25;20.90;91.10
20319;DHT22;10317;47.254;11.314;2022-09-01T12:38:54;21.00;92.50
20319;DHT22;10317;47.254;11.314;2022-09-01T12:41:37;21.00;92.00
20319;DHT22;10317;47.254;11.314;2022-09-01T12:49:59;21.00;92.50
20319;DHT22;10317;47.254;11.314;2022-09-01T12:52:29;20.90;94.00
20319;DHT22;10317;47.254;11.314;2022-09-01T13:05:33;20.90;96.10
20319;DHT22;10317;47.254;11.314;2022-09-01T13:08:05;20.90;96.10
20319;DHT22;10317;47.254;11.314;2022-09-01T13:10:43;20.90;97.00
20319;DHT22;10317;47.254;11.314;2022-09-01T13:13:10;20.80;94.10
20319;DHT22;10317;47.254;11.314;2022-09-01T13:18:58;20.80;96.90
20319;DHT22;10317;47.254;11.314;2022-09-01T13:21:24;20.80;97.70
20319;DHT22;10317;47.254;11.314;2022-09-01T13:23:50;20.80;97.40
20319;DHT22;10317;47.254;11.314;2022-09-01T13:26:16;20.80;97.20
20319;DHT22;10317;47.254;11.314;2022-09-01T13:28:41;20.80;97.20
20319;DHT22;10317;47.254;11.314;2022-09-01T13:31:08;20.80;96.10
20319;DHT22;10317;47.254;11.314;2022-09-01T13:33:34;20.80;97.30
20319;DHT22;10317;47.254;11.314;2022-09-01T13:36:01;20.70;96.10
20319;DHT22;10317;47.254;11.314;2022-09-01T13:38:27;20.80;97.10
20319;DHT22;10317;47.254;11.314;2022-09-01T13:40:53;20.80;97.20
20319;DHT22;10317;47.254;11.314;2022-09-01T13:43:21;20.80;97.20
20319;DHT22;10317;47.254;11.314;2022-09-01T13:45:48;20.90;96.60
20319;DHT22;10317;47.254;11.314;2022-09-01T13:48:15;20.90;96.70
20319;DHT22;10317;47.254;11.314;2022-09-01T13:50:41;21.00;96.40
20319;DHT22;10317;47.254;11.314;2022-09-01T13:53:07;20.90;95.30
20319;DHT22;10317;47.254;11.314;2022-09-01T13:55:37;21.00;95.50
20319;DHT22;10317;47.254;11.314;2022-09-01T13:58:03;21.00;95.90
20319;DHT22;10317;47.254;11.314;2022-09-01T14:00:33;21.10;94.90
20319;DHT22;10317;47.254;11.314;2022-09-01T14:03:06;21.00;92.80
20319;DHT22;10317;47.254;11.314;2022-09-01T14:05:35;21.00;94.00
20319;DHT22;10317;47.254;11.314;2022-09-01T14:08:01;21.10;95.00
20319;DHT22;10317;47.254;11.314;2022-09-01T14:10:29;21.20;95.40
20319;DHT22;10317;47.254;11.314;2022-09-01T14:12:58;21.20;95.00
20319;DHT22;10317;47.254;11.314;2022-09-01T14:15:25;21.10;94.90
20319;DHT22;10317;47.254;11.314;2022-09-01T14:17:53;21.00;95.00
20319;DHT22;10317;47.254;11.314;2022-09-01T14:20:26;21.00;95.60
20319;DHT22;10317;47.254;11.314;2022-09-01T14:22:53;20.90;95.70
20319;DHT22;10317;47.254;11.314;2022-09-01T14:25:20;20.90;96.20
20319;DHT22;10317;47.254;11.314;2022-09-01T14:27:47;20.90;96.30
20319;DHT22;10317;47.254;11.314;2022-09-01T14:30:20;21.00;96.80
20319;DHT22;10317;47.254;11.314;2022-09-01T14:32:47;21.00;97.30
20319;DHT22;10317;47.254;11.314;2022-09-01T14:35:14;20.90;97.30
20319;DHT22;10317;47.254;11.314;2022-09-01T14:37:40;21.00;97.30
20319;DHT22;10317;47.254;11.314;2022-09-01T14:40:08;21.00;97.10
20319;DHT22;10317;47.254;11.314;2022-09-01T14:42:34;20.90;97.10
20319;DHT22;10317;47.254;11.314;2022-09-01T14:45:04;20.90;96.80
20319;DHT22;10317;47.254;11.314;2022-09-01T14:47:30;20.90;96.90
20319;DHT22;10317;47.254;11.314;2022-09-01T14:49:56;20.90;97.00
20319;DHT22;10317;47.254;11.314;2022-09-01T14:52:22;21.00;97.70
20319;DHT22;10317;47.254;11.314;2022-09-01T14:54:48;21.00;97.60
20319;DHT22;10317;47.254;11.314;2022-09-01T14:57:16;21.10;92.60
20319;DHT22;10317;47.254;11.314;2022-09-01T14:59:42;21.10;91.00
20319;DHT22;10317;47.254;11.314;2022-09-01T15:02:08;21.40;92.80
20319;DHT22;10317;47.254;11.314;2022-09-01T15:04:34;21.60;91.60
20319;DHT22;10317;47.254;11.314;2022-09-01T15:07:00;21.70;88.70
20319;DHT22;10317;47.254;11.314;2022-09-01T15:09:29;21.90;84.80
20319;DHT22;10317;47.254;11.314;2022-09-01T15:11:55;22.00;85.70
20319;DHT22;10317;47.254;11.314;2022-09-01T15:14:20;22.10;85.80
20319;DHT22;10317;47.254;11.314;2022-09-01T15:16:46;22.10;82.90
20319;DHT22;10317;47.254;11.314;2022-09-01T15:19:13;22.30;83.00
20319;DHT22;10317;47.254;11.314;2022-09-01T15:21:41;22.40;81.90
20319;DHT22;10317;47.254;11.314;2022-09-01T15:24:09;22.60;81.40
20319;DHT22;10317;47.254;11.314;2022-09-01T15:26:35;22.70;81.50
20319;DHT22;10317;47.254;11.314;2022-09-01T15:29:03;22.70;80.10
20319;DHT22;10317;47.254;11.314;2022-09-01T15:31:29;22.80;82.00
20319;DHT22;10317;47.254;11.314;2022-09-01T15:33:59;22.70;80.70
20319;DHT22;10317;47.254;11.314;2022-09-01T15:36:26;22.80;82.50
20319;DHT22;10317;47.254;11.314;2022-09-01T15:38:53;22.90;82.60
20319;DHT22;10317;47.254;11.314;2022-09-01T15:41:25;23.00;82.40
20319;DHT22;10317;47.254;11.314;2022-09-01T15:43:51;22.80;82.50
20319;DHT22;10317;47.254;11.314;2022-09-01T15:46:18;22.70;81.90
20319;DHT22;10317;47.254;11.314;2022-09-01T15:48:44;22.50;85.40
20319;DHT22;10317;47.254;11.314;2022-09-01T15:53:44;22.40;83.40
20319;DHT22;10317;47.254;11.314;2022-09-01T15:56:10;22.40;81.40
20319;DHT22;10317;47.254;11.314;2022-09-01T15:58:36;22.40;81.70
20319;DHT22;10317;47.254;11.314;2022-09-01T16:01:01;22.10;80.90
20319;DHT22;10317;47.254;11.314;2022-09-01T16:03:27;22.10;80.10
20319;DHT22;10317;47.254;11.314;2022-09-01T16:05:58;21.80;80.80
20319;DHT22;10317;47.254;11.314;2022-09-01T16:08:24;21.60;81.00
20319;DHT22;10317;47.254;11.314;2022-09-01T16:10:50;21.50;82.40
20319;DHT22;10317;47.254;11.314;2022-09-01T16:13:16;21.30;83.60
20319;DHT22;10317;47.254;11.314;2022-09-01T16:15:53;21.10;84.00
20319;DHT22;10317;47.254;11.314;2022-09-01T16:18:28;20.90;84.00
20319;DHT22;10317;47.254;11.314;2022-09-01T16:24:18;20.60;89.60
20319;DHT22;10317;47.254;11.314;2022-09-01T16:26:46;20.40;88.70
20319;DHT22;10317;47.254;11.314;2022-09-01T16:29:26;20.30;90.50
20319;DHT22;10317;47.254;11.314;2022-09-01T16:31:54;20.10;91.10
20319;DHT22;10317;47.254;11.314;2022-09-01T16:34:21;20.00;93.30
20319;DHT22;10317;47.254;11.314;2022-09-01T16:37:05;19.90;94.10
20319;DHT22;10317;47.254;11.314;2022-09-01T16:39:50;19.80;93.30
20319;DHT22;10317;47.254;11.314;2022-09-01T16:45:11;19.40;96.40
20319;DHT22;10317;47.254;11.314;2022-09-01T16:48:07;19.40;96.30
20319;DHT22;10317;47.254;11.314;2022-09-01T16:53:15;19.20;95.40
20319;DHT22;10317;47.254;11.314;2022-09-01T16:56:01;19.10;94.70
20319;DHT22;10317;47.254;11.314;2022-09-01T16:58:58;18.90;96.40
20319;DHT22;10317;47.254;11.314;2022-09-01T17:07:20;18.60;95.30
20319;DHT22;10317;47.254;11.314;2022-09-01T17:10:03;18.50;96.80